createdAt,value
2022-10-31T00:00:45.309Z,0
2022-10-31T00:01:45.235Z,0
2022-10-31T00:02:45.143Z,0
2022-10-31T00:03:45.119Z,0
2022-10-31T00:04:45.093Z,0
2022-10-31T00:05:45.090Z,0
2022-10-31T00:06:45.130Z,0
2022-10-31T00:07:45.113Z,0
2022-10-31T00:08:45.095Z,0
2022-10-31T00:09:45.096Z,0
2022-10-31T00:10:45.103Z,0
2022-10-31T00:11:45.095Z,0
2022-10-31T00:12:45.112Z,0
2022-10-31T00:13:45.118Z,0
2022-10-31T00:14:45.093Z,0
2022-10-31T00:15:45.095Z,0
2022-10-31T00:16:45.094Z,0
2022-10-31T00:17:45.123Z,0
2022-10-31T00:18:45.092Z,0
2022-10-31T00:19:45.092Z,0
2022-10-31T00:20:45.093Z,0
2022-10-31T00:21:45.105Z,0
2022-10-31T00:22:45.108Z,0
2022-10-31T00:23:45.115Z,0
2022-10-31T00:24:45.091Z,0
2022-10-31T00:25:45.103Z,0
2022-10-31T00:26:45.114Z,0
2022-10-31T00:27:45.121Z,0
2022-10-31T00:28:45.110Z,0
2022-10-31T00:29:45.096Z,0
2022-10-31T00:30:45.109Z,0
2022-10-31T00:31:45.111Z,0
2022-10-31T00:32:45.113Z,0
2022-10-31T00:33:45.108Z,0
2022-10-31T00:34:45.135Z,0
2022-10-31T00:35:45.092Z,0
2022-10-31T00:36:45.114Z,0
2022-10-31T00:37:45.121Z,0
2022-10-31T00:38:45.094Z,0
2022-10-31T00:39:45.112Z,0
2022-10-31T00:40:45.108Z,0
2022-10-31T00:41:45.125Z,0
2022-10-31T00:42:45.116Z,0
2022-10-31T00:43:45.119Z,0
2022-10-31T00:44:45.106Z,0
2022-10-31T00:45:45.108Z,0
2022-10-31T00:46:45.105Z,0
2022-10-31T00:47:45.120Z,0
2022-10-31T00:48:45.104Z,0
2022-10-31T00:49:45.106Z,0
2022-10-31T00:50:45.102Z,0
2022-10-31T00:51:45.100Z,0
2022-10-31T00:52:45.112Z,0
2022-10-31T00:53:45.115Z,0
2022-10-31T00:54:45.111Z,0
2022-10-31T00:55:45.114Z,0
2022-10-31T00:56:45.108Z,0
2022-10-31T00:57:45.127Z,0
2022-10-31T00:58:45.127Z,0
2022-10-31T00:59:45.116Z,0
2022-10-31T01:00:48.076Z,0
2022-10-31T01:01:45.268Z,0
2022-10-31T01:02:45.244Z,0
2022-10-31T01:03:45.112Z,0
2022-10-31T01:04:45.096Z,0
2022-10-31T01:05:45.097Z,0
2022-10-31T01:06:45.089Z,0
2022-10-31T01:07:45.127Z,0
2022-10-31T01:08:45.181Z,0
2022-10-31T01:09:45.113Z,0
2022-10-31T01:10:45.112Z,0
2022-10-31T01:11:45.112Z,0
2022-10-31T01:12:45.122Z,0
2022-10-31T01:13:45.094Z,0
2022-10-31T01:14:45.103Z,0
2022-10-31T01:15:45.095Z,0
2022-10-31T01:16:45.094Z,0
2022-10-31T01:17:45.118Z,0
2022-10-31T01:18:45.094Z,0
2022-10-31T01:19:45.093Z,0
2022-10-31T01:20:45.092Z,0
2022-10-31T01:21:45.096Z,0
2022-10-31T01:22:45.111Z,0
2022-10-31T01:23:45.091Z,0
2022-10-31T01:24:45.093Z,0
2022-10-31T01:25:45.091Z,0
2022-10-31T01:26:45.094Z,0
2022-10-31T01:27:45.110Z,0
2022-10-31T01:28:45.229Z,0
2022-10-31T01:29:45.094Z,0
2022-10-31T01:30:45.093Z,0
2022-10-31T01:31:45.098Z,0
2022-10-31T01:32:45.118Z,0
2022-10-31T01:33:45.106Z,0
2022-10-31T01:34:45.108Z,0
2022-10-31T01:35:45.109Z,0
2022-10-31T01:36:45.108Z,0
2022-10-31T01:37:45.115Z,0
2022-10-31T01:38:45.131Z,0
2022-10-31T01:39:45.102Z,0
2022-10-31T01:40:45.103Z,0
2022-10-31T01:41:45.103Z,0
2022-10-31T01:42:45.117Z,0
2022-10-31T01:43:45.093Z,0
2022-10-31T01:44:45.107Z,0
2022-10-31T01:45:45.114Z,0
2022-10-31T01:46:45.111Z,0
2022-10-31T01:47:45.123Z,0
2022-10-31T01:48:45.147Z,0
2022-10-31T01:49:45.119Z,0
2022-10-31T01:50:45.112Z,0
2022-10-31T01:51:45.101Z,0
2022-10-31T01:52:45.119Z,0
2022-10-31T01:53:45.117Z,0
2022-10-31T01:54:45.119Z,0
2022-10-31T01:55:45.107Z,0
2022-10-31T01:56:45.104Z,0
2022-10-31T01:57:45.118Z,0
2022-10-31T01:58:45.107Z,0
2022-10-31T01:59:45.102Z,0
2022-10-31T02:00:45.181Z,0
2022-10-31T02:01:45.250Z,0
2022-10-31T02:02:45.235Z,0
2022-10-31T02:03:45.109Z,0
2022-10-31T02:04:45.119Z,0
2022-10-31T02:05:45.103Z,0
2022-10-31T02:06:45.110Z,0
2022-10-31T02:07:45.119Z,0
2022-10-31T02:08:45.107Z,0
2022-10-31T02:09:45.111Z,0
2022-10-31T02:10:45.118Z,0
2022-10-31T02:11:45.111Z,0
2022-10-31T02:12:45.112Z,0
2022-10-31T02:13:45.106Z,0
2022-10-31T02:14:45.110Z,0
2022-10-31T02:15:45.111Z,0
2022-10-31T02:16:45.129Z,0
2022-10-31T02:17:45.126Z,0
2022-10-31T02:18:45.115Z,0
2022-10-31T02:19:45.096Z,0
2022-10-31T02:20:45.096Z,0
2022-10-31T02:21:45.113Z,0
2022-10-31T02:22:45.208Z,0
2022-10-31T02:23:47.878Z,0
2022-10-31T02:24:45.102Z,0
2022-10-31T02:25:45.099Z,0
2022-10-31T02:26:45.092Z,0
2022-10-31T02:27:45.120Z,0
2022-10-31T02:28:45.199Z,0
2022-10-31T02:29:45.096Z,0
2022-10-31T02:30:45.116Z,0
2022-10-31T02:31:45.094Z,0
2022-10-31T02:32:45.113Z,0
2022-10-31T02:33:45.108Z,0
2022-10-31T02:34:45.093Z,0
2022-10-31T02:35:45.120Z,0
2022-10-31T02:36:45.112Z,0
2022-10-31T02:37:45.120Z,0
2022-10-31T02:38:45.159Z,0
2022-10-31T02:39:45.094Z,0
2022-10-31T02:40:45.099Z,0
2022-10-31T02:41:45.093Z,0
2022-10-31T02:42:45.120Z,0
2022-10-31T02:43:45.118Z,0
2022-10-31T02:44:45.109Z,0
2022-10-31T02:45:45.114Z,0
2022-10-31T02:46:45.105Z,0
2022-10-31T02:47:45.122Z,0
2022-10-31T02:48:45.093Z,0
2022-10-31T02:49:45.115Z,0
2022-10-31T02:50:45.108Z,0
2022-10-31T02:51:45.111Z,0
2022-10-31T02:52:45.122Z,0
2022-10-31T02:53:45.128Z,0
2022-10-31T02:54:45.112Z,0
2022-10-31T02:55:45.109Z,0
2022-10-31T02:56:45.110Z,0
2022-10-31T02:57:45.131Z,0
2022-10-31T02:58:45.114Z,0
2022-10-31T02:59:45.110Z,0
2022-10-31T03:00:47.070Z,0
2022-10-31T03:01:45.247Z,0
2022-10-31T03:02:45.313Z,0
2022-10-31T03:03:45.115Z,0
2022-10-31T03:04:45.095Z,0
2022-10-31T03:05:45.124Z,0
2022-10-31T03:06:45.116Z,0
2022-10-31T03:07:45.138Z,0
2022-10-31T03:08:45.159Z,0
2022-10-31T03:09:45.116Z,0
2022-10-31T03:10:45.122Z,0
2022-10-31T03:11:45.113Z,0
2022-10-31T03:12:47.786Z,0
2022-10-31T03:13:45.118Z,0
2022-10-31T03:14:45.116Z,0
2022-10-31T03:15:45.115Z,0
2022-10-31T03:16:45.107Z,0
2022-10-31T03:17:45.126Z,0
2022-10-31T03:18:45.112Z,0
2022-10-31T03:19:45.170Z,0
2022-10-31T03:20:45.121Z,0
2022-10-31T03:21:45.106Z,0
2022-10-31T03:22:45.121Z,0
2022-10-31T03:23:45.127Z,0
2022-10-31T03:24:45.124Z,0
2022-10-31T03:25:45.109Z,0
2022-10-31T03:26:45.116Z,0
2022-10-31T03:27:45.125Z,0
2022-10-31T03:28:45.106Z,0
2022-10-31T03:29:45.122Z,0
2022-10-31T03:30:45.116Z,0
2022-10-31T03:31:45.093Z,0
2022-10-31T03:32:45.115Z,0
2022-10-31T03:33:45.091Z,0
2022-10-31T03:34:45.101Z,0
2022-10-31T03:35:45.096Z,0
2022-10-31T03:36:45.092Z,0
2022-10-31T03:37:45.116Z,0
2022-10-31T03:38:45.092Z,0
2022-10-31T03:39:45.119Z,0
2022-10-31T03:40:45.093Z,0
2022-10-31T03:41:45.097Z,0
2022-10-31T03:42:45.118Z,0
2022-10-31T03:43:45.099Z,0
2022-10-31T03:44:45.098Z,0
2022-10-31T03:45:45.110Z,0
2022-10-31T03:46:45.096Z,0
2022-10-31T03:47:45.151Z,0
2022-10-31T03:48:45.094Z,0
2022-10-31T03:49:45.134Z,0
2022-10-31T03:50:45.108Z,0
2022-10-31T03:51:45.105Z,0
2022-10-31T03:52:45.124Z,0
2022-10-31T03:53:45.113Z,0
2022-10-31T03:54:45.127Z,0
2022-10-31T03:55:45.105Z,0
2022-10-31T03:56:45.118Z,0
2022-10-31T03:57:45.132Z,0
2022-10-31T03:58:45.116Z,0
2022-10-31T03:59:45.122Z,0
2022-10-31T04:00:45.093Z,0
2022-10-31T04:01:45.252Z,0
2022-10-31T04:02:45.278Z,0
2022-10-31T04:03:45.115Z,0
2022-10-31T04:04:45.106Z,0
2022-10-31T04:05:45.119Z,0
2022-10-31T04:06:45.132Z,0
2022-10-31T04:07:45.125Z,0
2022-10-31T04:08:45.112Z,0
2022-10-31T04:09:45.121Z,0
2022-10-31T04:10:45.121Z,0
2022-10-31T04:11:45.111Z,0
2022-10-31T04:12:45.124Z,0
2022-10-31T04:13:45.117Z,0
2022-10-31T04:14:45.118Z,0
2022-10-31T04:15:45.116Z,0
2022-10-31T04:16:45.098Z,0
2022-10-31T04:17:45.122Z,0
2022-10-31T04:18:45.114Z,0
2022-10-31T04:19:45.116Z,0
2022-10-31T04:20:45.117Z,0
2022-10-31T04:21:45.112Z,0
2022-10-31T04:22:45.114Z,0
2022-10-31T04:23:45.112Z,0
2022-10-31T04:24:45.133Z,0
2022-10-31T04:25:45.110Z,0
2022-10-31T04:26:45.111Z,0
2022-10-31T04:27:45.126Z,0
2022-10-31T04:28:45.107Z,0
2022-10-31T04:29:48.229Z,0
2022-10-31T04:30:45.092Z,0
2022-10-31T04:31:45.114Z,0
2022-10-31T04:32:45.166Z,0
2022-10-31T04:33:45.123Z,0
2022-10-31T04:34:45.112Z,0
2022-10-31T04:35:45.110Z,0
2022-10-31T04:36:45.111Z,0
2022-10-31T04:37:45.121Z,0
2022-10-31T04:38:45.128Z,0
2022-10-31T04:39:45.129Z,0
2022-10-31T04:40:45.135Z,0
2022-10-31T04:41:45.138Z,0
2022-10-31T04:42:45.123Z,0
2022-10-31T04:43:45.101Z,0
2022-10-31T04:44:45.098Z,0
2022-10-31T04:45:45.107Z,0
2022-10-31T04:46:45.098Z,0
2022-10-31T04:47:45.126Z,0
2022-10-31T04:48:45.107Z,0
2022-10-31T04:49:45.099Z,0
2022-10-31T04:50:45.094Z,0
2022-10-31T04:51:45.107Z,0
2022-10-31T04:52:45.116Z,0
2022-10-31T04:53:45.092Z,0
2022-10-31T04:54:45.124Z,0
2022-10-31T04:55:45.097Z,0
2022-10-31T04:56:45.108Z,0
2022-10-31T04:57:45.120Z,0
2022-10-31T04:58:45.096Z,0
2022-10-31T04:59:45.102Z,0
2022-10-31T05:00:45.152Z,0
2022-10-31T05:01:45.275Z,0
2022-10-31T05:02:45.123Z,0
2022-10-31T05:03:45.118Z,0
2022-10-31T05:04:45.113Z,0
2022-10-31T05:05:45.117Z,0
2022-10-31T05:06:45.106Z,0
2022-10-31T05:07:45.128Z,0
2022-10-31T05:08:45.111Z,0
2022-10-31T05:09:45.123Z,0
2022-10-31T05:10:45.092Z,0
2022-10-31T05:11:45.113Z,0
2022-10-31T05:12:45.138Z,0
2022-10-31T05:13:45.114Z,0
2022-10-31T05:14:48.495Z,0
2022-10-31T05:15:45.116Z,0
2022-10-31T05:16:45.109Z,0
2022-10-31T05:17:45.175Z,0
2022-10-31T05:18:45.119Z,0
2022-10-31T05:19:45.110Z,0
2022-10-31T05:20:45.109Z,0
2022-10-31T05:21:45.112Z,0
2022-10-31T05:22:45.118Z,1
2022-10-31T05:23:47.580Z,1
2022-10-31T05:24:45.117Z,3
2022-10-31T05:25:45.118Z,5
2022-10-31T05:26:45.097Z,5
2022-10-31T05:27:45.123Z,7
2022-10-31T05:28:45.119Z,11
2022-10-31T05:29:45.112Z,12
2022-10-31T05:30:45.118Z,14
2022-10-31T05:31:45.115Z,18
2022-10-31T05:32:45.119Z,20
2022-10-31T05:33:45.128Z,25
2022-10-31T05:34:45.114Z,29
2022-10-31T05:35:45.109Z,36
2022-10-31T05:36:45.111Z,42
2022-10-31T05:37:45.119Z,49
2022-10-31T05:38:45.111Z,55
2022-10-31T05:39:45.136Z,64
2022-10-31T05:40:45.175Z,73
2022-10-31T05:41:45.110Z,84
2022-10-31T05:42:45.117Z,95
2022-10-31T05:43:45.115Z,108
2022-10-31T05:44:45.103Z,121
2022-10-31T05:45:45.112Z,136
2022-10-31T05:46:45.200Z,152
2022-10-31T05:47:45.133Z,167
2022-10-31T05:48:45.103Z,188
2022-10-31T05:49:45.111Z,206
2022-10-31T05:50:45.117Z,226
2022-10-31T05:51:45.110Z,246
2022-10-31T05:52:45.103Z,267
2022-10-31T05:53:45.110Z,293
2022-10-31T05:54:45.134Z,293
2022-10-31T05:55:45.095Z,317
2022-10-31T05:56:45.097Z,368
2022-10-31T05:57:45.125Z,396
2022-10-31T05:58:45.091Z,423
2022-10-31T05:59:45.113Z,453
2022-10-31T06:00:45.092Z,453
2022-10-31T06:01:45.239Z,514
2022-10-31T06:02:45.111Z,543
2022-10-31T06:03:45.177Z,576
2022-10-31T06:04:45.157Z,613
2022-10-31T06:05:47.930Z,643
2022-10-31T06:06:45.092Z,678
2022-10-31T06:07:45.134Z,726
2022-10-31T06:08:45.092Z,726
2022-10-31T06:09:45.120Z,838
2022-10-31T06:10:45.104Z,838
2022-10-31T06:11:45.091Z,934
2022-10-31T06:12:45.114Z,980
2022-10-31T06:13:45.116Z,1032
2022-10-31T06:14:45.097Z,1078
2022-10-31T06:15:45.110Z,1133
2022-10-31T06:16:45.095Z,1183
2022-10-31T06:17:45.108Z,1227
2022-10-31T06:18:45.116Z,1275
2022-10-31T06:19:45.170Z,1336
2022-10-31T06:20:45.109Z,1411
2022-10-31T06:21:45.120Z,1492
2022-10-31T06:22:45.119Z,1559
2022-10-31T06:23:45.114Z,1620
2022-10-31T06:24:45.121Z,1677
2022-10-31T06:25:45.120Z,1732
2022-10-31T06:26:45.112Z,1797
2022-10-31T06:27:45.118Z,1874
2022-10-31T06:28:45.137Z,1937
2022-10-31T06:29:45.112Z,2005
2022-10-31T06:30:45.110Z,2071
2022-10-31T06:31:45.115Z,2128
2022-10-31T06:32:45.114Z,2178
2022-10-31T06:33:45.115Z,2241
2022-10-31T06:34:45.117Z,2313
2022-10-31T06:35:45.181Z,2386
2022-10-31T06:36:45.098Z,2451
2022-10-31T06:37:48.192Z,2508
2022-10-31T06:38:45.115Z,2584
2022-10-31T06:39:45.129Z,2650
2022-10-31T06:40:45.116Z,2715
2022-10-31T06:41:45.117Z,2779
2022-10-31T06:42:45.112Z,2823
2022-10-31T06:43:45.122Z,2888
2022-10-31T06:44:45.112Z,2952
2022-10-31T06:45:45.113Z,2997
2022-10-31T06:46:45.113Z,3059
2022-10-31T06:48:03.854Z,3116
2022-10-31T06:48:45.116Z,3179
2022-10-31T06:49:45.113Z,3234
2022-10-31T06:50:45.114Z,3280
2022-10-31T06:51:45.119Z,3347
2022-10-31T06:52:45.115Z,3443
2022-10-31T06:53:45.118Z,3468
2022-10-31T06:54:45.127Z,3522
2022-10-31T06:55:45.107Z,3570
2022-10-31T06:56:45.115Z,3614
2022-10-31T06:57:45.126Z,3658
2022-10-31T06:58:45.108Z,3712
2022-10-31T06:59:45.116Z,3763
2022-10-31T07:00:45.133Z,3796
2022-10-31T07:01:45.231Z,3857
2022-10-31T07:02:45.122Z,3914
2022-10-31T07:03:45.110Z,3962
2022-10-31T07:04:45.104Z,3962
2022-10-31T07:05:45.098Z,4016
2022-10-31T07:06:48.253Z,4101
2022-10-31T07:07:45.135Z,4130
2022-10-31T07:08:45.097Z,4130
2022-10-31T07:09:45.132Z,4243
2022-10-31T07:10:45.099Z,4243
2022-10-31T07:11:45.096Z,4325
2022-10-31T07:12:45.183Z,4401
2022-10-31T07:13:45.093Z,4408
2022-10-31T07:14:45.093Z,4241
2022-10-31T07:15:45.111Z,4510
2022-10-31T07:16:45.093Z,4563
2022-10-31T07:17:45.130Z,4600
2022-10-31T07:18:45.097Z,4654
2022-10-31T07:19:45.098Z,4751
2022-10-31T07:20:45.110Z,4751
2022-10-31T07:21:45.096Z,4713
2022-10-31T07:22:49.620Z,4585
2022-10-31T07:23:45.111Z,5090
2022-10-31T07:24:45.121Z,5175
2022-10-31T07:25:45.097Z,5269
2022-10-31T07:26:45.108Z,5341
2022-10-31T07:27:45.107Z,5406
2022-10-31T07:28:45.129Z,5489
2022-10-31T07:29:45.110Z,5645
2022-10-31T07:30:45.113Z,5636
2022-10-31T07:31:45.135Z,5824
2022-10-31T07:32:45.118Z,5830
2022-10-31T07:33:45.119Z,5918
2022-10-31T07:34:47.476Z,6025
2022-10-31T07:35:45.139Z,6089
2022-10-31T07:36:45.105Z,6222
2022-10-31T07:37:45.122Z,6318
2022-10-31T07:38:45.121Z,6803
2022-10-31T07:39:45.121Z,6436
2022-10-31T07:40:45.121Z,6504
2022-10-31T07:41:45.111Z,6537
2022-10-31T07:42:45.109Z,6899
2022-10-31T07:43:45.156Z,6736
2022-10-31T07:44:45.115Z,6843
2022-10-31T07:45:45.096Z,6961
2022-10-31T07:46:45.114Z,7063
2022-10-31T07:47:45.125Z,7188
2022-10-31T07:48:45.117Z,7280
2022-10-31T07:49:45.118Z,7339
2022-10-31T07:50:45.112Z,7514
2022-10-31T07:51:46.524Z,7713
2022-10-31T07:52:45.111Z,7599
2022-10-31T07:53:45.105Z,7684
2022-10-31T07:54:45.130Z,7909
2022-10-31T07:55:45.109Z,7993
2022-10-31T07:56:45.112Z,8082
2022-10-31T07:57:45.129Z,8222
2022-10-31T07:58:45.114Z,8027
2022-10-31T07:59:45.112Z,7944
2022-10-31T08:00:45.252Z,7769
2022-10-31T08:01:45.132Z,8170
2022-10-31T08:02:45.151Z,7968
2022-10-31T08:03:45.112Z,8237
2022-10-31T08:04:45.110Z,8935
2022-10-31T08:05:45.111Z,8819
2022-10-31T08:06:45.131Z,8830
2022-10-31T08:07:45.138Z,8823
2022-10-31T08:08:45.162Z,8823
2022-10-31T08:09:45.136Z,9964
2022-10-31T08:10:45.117Z,9914
2022-10-31T08:11:45.199Z,9829
2022-10-31T08:12:45.118Z,9966
2022-10-31T08:13:45.113Z,9966
2022-10-31T08:14:45.102Z,10085
2022-10-31T08:15:45.110Z,9162
2022-10-31T08:16:45.094Z,9204
2022-10-31T08:17:45.115Z,10325
2022-10-31T08:18:45.093Z,10452
2022-10-31T08:19:45.097Z,10544
2022-10-31T08:20:45.108Z,10544
2022-10-31T08:21:45.095Z,10699
2022-10-31T08:22:45.115Z,10845
2022-10-31T08:23:45.096Z,10972
2022-10-31T08:24:45.139Z,11066
2022-10-31T08:25:45.097Z,11147
2022-10-31T08:26:45.097Z,10456
2022-10-31T08:27:45.120Z,10441
2022-10-31T08:28:45.105Z,10399
2022-10-31T08:29:45.098Z,11849
2022-10-31T08:30:45.098Z,11860
2022-10-31T08:31:45.098Z,11932
2022-10-31T08:32:45.108Z,12259
2022-10-31T08:33:45.098Z,12388
2022-10-31T08:34:45.096Z,11693
2022-10-31T08:35:45.095Z,12461
2022-10-31T08:36:45.118Z,12729
2022-10-31T08:37:45.117Z,12777
2022-10-31T08:38:45.114Z,12771
2022-10-31T08:39:45.143Z,12730
2022-10-31T08:40:45.117Z,13711
2022-10-31T08:41:45.113Z,13379
2022-10-31T08:42:45.117Z,13125
2022-10-31T08:43:45.107Z,13195
2022-10-31T08:44:45.113Z,13121
2022-10-31T08:45:45.109Z,13140
2022-10-31T08:46:45.124Z,12977
2022-10-31T08:47:45.130Z,12738
2022-10-31T08:48:45.104Z,12301
2022-10-31T08:49:45.109Z,12294
2022-10-31T08:50:45.113Z,12684
2022-10-31T08:51:45.099Z,12530
2022-10-31T08:53:04.077Z,11978
2022-10-31T08:53:45.112Z,13274
2022-10-31T08:54:45.124Z,13401
2022-10-31T08:55:45.126Z,13363
2022-10-31T08:56:45.115Z,13046
2022-10-31T08:57:45.119Z,14207
2022-10-31T08:58:45.097Z,14463
2022-10-31T08:59:45.094Z,14686
2022-10-31T09:00:45.178Z,14686
2022-10-31T09:01:45.189Z,14931
2022-10-31T09:02:45.122Z,13285
2022-10-31T09:03:45.118Z,15071
2022-10-31T09:04:45.121Z,15165
2022-10-31T09:05:45.158Z,15123
2022-10-31T09:07:08.030Z,15121
2022-10-31T09:07:45.120Z,15184
2022-10-31T09:08:45.120Z,15184
2022-10-31T09:09:45.114Z,15357
2022-10-31T09:10:45.129Z,14856
2022-10-31T09:11:45.110Z,15580
2022-10-31T09:12:45.128Z,14977
2022-10-31T09:13:45.110Z,13070
2022-10-31T09:14:45.111Z,15849
2022-10-31T09:15:45.120Z,15687
2022-10-31T09:16:45.120Z,15587
2022-10-31T09:17:45.409Z,15770
2022-10-31T09:18:45.164Z,15705
2022-10-31T09:19:45.117Z,15728
2022-10-31T09:20:45.095Z,15587
2022-10-31T09:21:45.116Z,15582
2022-10-31T09:22:45.126Z,15718
2022-10-31T09:23:45.134Z,15523
2022-10-31T09:24:45.134Z,15305
2022-10-31T09:25:50.219Z,16022
2022-10-31T09:26:45.116Z,16022
2022-10-31T09:27:45.112Z,15991
2022-10-31T09:28:45.094Z,16183
2022-10-31T09:29:45.094Z,16039
2022-10-31T09:30:45.122Z,16039
2022-10-31T09:31:45.294Z,16446
2022-10-31T09:32:45.116Z,16210
2022-10-31T09:33:45.109Z,16085
2022-10-31T09:34:45.095Z,16249
2022-10-31T09:35:45.109Z,13503
2022-10-31T09:36:45.452Z,16885
2022-10-31T09:37:45.123Z,16708
2022-10-31T09:38:45.093Z,16649
2022-10-31T09:39:45.099Z,16660
2022-10-31T09:40:45.113Z,15928
2022-10-31T09:41:45.683Z,16021
2022-10-31T09:42:45.124Z,16951
2022-10-31T09:43:45.094Z,14113
2022-10-31T09:44:45.099Z,16249
2022-10-31T09:45:45.112Z,15753
2022-10-31T09:46:45.162Z,14784
2022-10-31T09:47:45.222Z,16686
2022-10-31T09:48:45.114Z,16752
2022-10-31T09:49:45.196Z,13623
2022-10-31T09:50:45.106Z,15081
2022-10-31T09:51:48.030Z,16798
2022-10-31T09:52:45.290Z,16684
2022-10-31T09:53:45.127Z,16623
2022-10-31T09:54:45.115Z,16487
2022-10-31T09:55:45.118Z,16371
2022-10-31T09:56:45.120Z,16255
2022-10-31T09:57:45.125Z,16155
2022-10-31T09:58:45.571Z,15833
2022-10-31T09:59:45.120Z,15906
2022-10-31T10:00:45.233Z,16035
2022-10-31T10:01:45.309Z,14721
2022-10-31T10:02:45.125Z,13634
2022-10-31T10:03:45.108Z,15140
2022-10-31T10:04:45.122Z,16555
2022-10-31T10:05:45.109Z,15986
2022-10-31T10:06:45.121Z,16880
2022-10-31T10:07:45.125Z,16413
2022-10-31T10:08:45.115Z,16413
2022-10-31T10:09:45.112Z,16885
2022-10-31T10:10:45.468Z,15930
2022-10-31T10:11:45.110Z,16955
2022-10-31T10:12:45.119Z,19021
2022-10-31T10:13:45.124Z,16373
2022-10-31T10:14:45.118Z,16774
2022-10-31T10:15:45.497Z,16926
2022-10-31T10:16:45.106Z,17154
2022-10-31T10:17:45.210Z,16880
2022-10-31T10:18:45.111Z,17267
2022-10-31T10:19:45.121Z,17355
2022-10-31T10:20:45.606Z,17510
2022-10-31T10:21:45.113Z,17208
2022-10-31T10:22:45.122Z,17530
2022-10-31T10:23:45.115Z,17453
2022-10-31T10:24:45.115Z,17490
2022-10-31T10:25:45.277Z,17471
2022-10-31T10:26:45.115Z,17558
2022-10-31T10:27:45.120Z,17595
2022-10-31T10:28:45.116Z,17506
2022-10-31T10:29:45.108Z,17399
2022-10-31T10:30:45.125Z,15801
2022-10-31T10:31:45.118Z,17333
2022-10-31T10:32:49.355Z,17362
2022-10-31T10:33:45.115Z,17573
2022-10-31T10:34:45.118Z,17573
2022-10-31T10:35:45.096Z,17742
2022-10-31T10:36:45.093Z,17812
2022-10-31T10:37:45.115Z,17971
2022-10-31T10:38:45.112Z,15634
2022-10-31T10:39:45.096Z,14647
2022-10-31T10:40:45.120Z,16002
2022-10-31T10:41:45.092Z,17565
2022-10-31T10:42:45.124Z,17805
2022-10-31T10:44:45.108Z,17976
2022-10-31T10:45:45.094Z,17912
2022-10-31T10:46:45.099Z,17869
2022-10-31T10:47:45.116Z,17816
2022-10-31T10:48:45.091Z,17866
2022-10-31T10:49:45.113Z,17884
2022-10-31T10:50:45.092Z,18068
2022-10-31T10:52:02.699Z,17947
2022-10-31T10:52:49.467Z,18166
2022-10-31T10:53:45.105Z,18262
2022-10-31T10:54:45.123Z,18387
2022-10-31T10:55:45.097Z,18579
2022-10-31T10:56:45.118Z,17681
2022-10-31T10:57:45.127Z,18631
2022-10-31T10:58:45.116Z,17350
2022-10-31T10:59:45.106Z,19329
2022-10-31T11:00:45.183Z,19012
2022-10-31T11:01:45.119Z,18656
2022-10-31T11:02:48.051Z,19119
2022-10-31T11:03:45.113Z,18949
2022-10-31T11:04:45.108Z,18782
2022-10-31T11:05:45.157Z,18293
2022-10-31T11:06:45.108Z,18817
2022-10-31T11:07:45.129Z,18951
2022-10-31T11:08:45.113Z,18951
2022-10-31T11:09:45.111Z,18972
2022-10-31T11:10:45.112Z,17525
2022-10-31T11:11:45.113Z,18813
2022-10-31T11:12:45.132Z,14644
2022-10-31T11:13:45.148Z,19069
2022-10-31T11:14:45.116Z,18977
2022-10-31T11:15:45.124Z,18708
2022-10-31T11:16:45.116Z,18903
2022-10-31T11:17:45.212Z,17825
2022-10-31T11:18:45.107Z,19182
2022-10-31T11:19:45.108Z,19169
2022-10-31T11:20:45.111Z,17585
2022-10-31T11:21:48.471Z,18839
2022-10-31T11:22:45.117Z,18752
2022-10-31T11:23:45.121Z,18454
2022-10-31T11:24:45.139Z,18514
2022-10-31T11:25:45.116Z,18264
2022-10-31T11:26:45.106Z,17681
2022-10-31T11:27:45.146Z,18402
2022-10-31T11:28:45.116Z,18647
2022-10-31T11:29:45.110Z,18946
2022-10-31T11:30:45.114Z,18879
2022-10-31T11:31:45.106Z,18771
2022-10-31T11:32:45.134Z,18828
2022-10-31T11:33:45.126Z,18815
2022-10-31T11:34:45.179Z,18911
2022-10-31T11:35:45.119Z,19062
2022-10-31T11:36:45.109Z,18846
2022-10-31T11:37:45.203Z,18784
2022-10-31T11:38:45.108Z,19169
2022-10-31T11:39:45.115Z,19292
2022-10-31T11:40:45.093Z,19292
2022-10-31T11:41:45.101Z,17818
2022-10-31T11:42:45.121Z,18267
2022-10-31T11:43:45.108Z,18190
2022-10-31T11:44:45.091Z,18279
2022-10-31T11:45:45.095Z,17906
2022-10-31T11:46:45.104Z,18059
2022-10-31T11:47:45.193Z,17984
2022-10-31T11:48:45.096Z,18245
2022-10-31T11:49:45.112Z,18306
2022-10-31T11:50:45.108Z,18306
2022-10-31T11:51:45.111Z,18568
2022-10-31T11:52:45.177Z,18653
2022-10-31T11:53:45.098Z,18889
2022-10-31T11:54:45.092Z,18999
2022-10-31T11:55:45.112Z,19086
2022-10-31T11:56:45.095Z,19078
2022-10-31T11:57:45.208Z,19047
2022-10-31T11:58:45.092Z,19021
2022-10-31T11:59:45.120Z,18937
2022-10-31T12:00:45.099Z,18909
2022-10-31T12:01:45.403Z,18699
2022-10-31T12:02:45.262Z,18505
2022-10-31T12:03:45.106Z,18428
2022-10-31T12:04:45.131Z,17713
2022-10-31T12:05:45.104Z,18172
2022-10-31T12:06:45.168Z,18129
2022-10-31T12:07:45.160Z,19799
2022-10-31T12:08:45.118Z,19799
2022-10-31T12:09:45.108Z,18138
2022-10-31T12:10:45.104Z,18181
2022-10-31T12:11:45.112Z,18083
2022-10-31T12:12:45.125Z,18054
2022-10-31T12:13:45.114Z,18054
2022-10-31T12:14:45.106Z,18153
2022-10-31T12:15:45.111Z,18140
2022-10-31T12:16:45.104Z,18079
2022-10-31T12:17:45.178Z,18076
2022-10-31T12:18:45.115Z,18124
2022-10-31T12:19:45.116Z,18620
2022-10-31T12:20:45.116Z,17945
2022-10-31T12:21:45.112Z,17825
2022-10-31T12:22:45.124Z,17257
2022-10-31T12:23:45.113Z,17508
2022-10-31T12:24:45.113Z,17453
2022-10-31T12:25:45.107Z,16701
2022-10-31T12:26:45.178Z,17003
2022-10-31T12:27:45.122Z,17390
2022-10-31T12:28:46.343Z,16607
2022-10-31T12:29:45.114Z,18631
2022-10-31T12:30:45.110Z,16327
2022-10-31T12:31:45.117Z,16588
2022-10-31T12:32:45.119Z,16821
2022-10-31T12:33:45.119Z,18114
2022-10-31T12:34:49.090Z,17613
2022-10-31T12:35:45.095Z,17134
2022-10-31T12:36:45.117Z,17324
2022-10-31T12:37:45.120Z,17368
2022-10-31T12:38:45.113Z,17256
2022-10-31T12:39:45.105Z,17208
2022-10-31T12:40:45.114Z,17926
2022-10-31T12:41:45.115Z,16413
2022-10-31T12:42:45.140Z,17154
2022-10-31T12:43:45.137Z,17202
2022-10-31T12:44:45.114Z,17263
2022-10-31T12:46:05.340Z,17152
2022-10-31T12:47:04.111Z,17543
2022-10-31T12:48:04.117Z,17213
2022-10-31T12:49:04.106Z,16997
2022-10-31T12:50:04.155Z,17143
2022-10-31T12:51:04.102Z,16861
2022-10-31T12:52:04.101Z,17003
2022-10-31T12:53:04.616Z,16841
2022-10-31T12:54:04.092Z,16981
2022-10-31T12:55:04.091Z,16310
2022-10-31T12:56:04.100Z,16846
2022-10-31T12:57:04.095Z,17221
2022-10-31T12:58:04.322Z,17103
2022-10-31T12:59:04.105Z,16651
2022-10-31T13:00:04.117Z,17386
2022-10-31T13:01:04.248Z,17217
2022-10-31T13:02:04.265Z,16979
2022-10-31T13:03:04.095Z,16962
2022-10-31T13:04:04.090Z,17202
2022-10-31T13:05:04.091Z,17033
2022-10-31T13:06:04.102Z,16907
2022-10-31T13:07:04.091Z,17197
2022-10-31T13:08:04.218Z,17289
2022-10-31T13:09:04.071Z,17289
2022-10-31T13:10:04.095Z,16741
2022-10-31T13:11:04.138Z,16601
2022-10-31T13:12:04.092Z,16146
2022-10-31T13:13:04.264Z,15853
2022-10-31T13:14:04.085Z,16253
2022-10-31T13:15:04.097Z,16321
2022-10-31T13:16:04.088Z,16371
2022-10-31T13:17:04.096Z,16297
2022-10-31T13:18:04.101Z,15952
2022-10-31T13:19:04.085Z,15648
2022-10-31T13:20:04.117Z,15366
2022-10-31T13:21:04.094Z,15025
2022-10-31T13:22:04.097Z,14902
2022-10-31T13:23:17.665Z,15088
2022-10-31T13:24:04.089Z,14782
2022-10-31T13:25:04.089Z,15667
2022-10-31T13:26:04.088Z,16511
2022-10-31T13:27:04.090Z,15387
2022-10-31T13:28:04.111Z,14581
2022-10-31T13:29:04.097Z,15313
2022-10-31T13:30:04.097Z,14952
2022-10-31T13:31:04.079Z,14515
2022-10-31T13:32:04.090Z,14784
2022-10-31T13:33:04.375Z,14259
2022-10-31T13:34:04.075Z,15399
2022-10-31T13:35:04.088Z,14211
2022-10-31T13:36:04.075Z,14776
2022-10-31T13:37:04.098Z,14874
2022-10-31T13:38:04.078Z,14795
2022-10-31T13:39:04.083Z,14662
2022-10-31T13:40:04.122Z,14808
2022-10-31T13:41:04.075Z,14924
2022-10-31T13:42:04.100Z,14703
2022-10-31T13:43:04.203Z,14793
2022-10-31T13:44:04.085Z,15283